createdAt,value
2017-05-10T00:01:07.170Z,100909.63
2017-05-10T00:03:34.980Z,100905.38
2017-05-10T00:06:02.553Z,100905.44
2017-05-10T00:08:30.272Z,100898.41
2017-05-10T00:10:57.819Z,100900.47
2017-05-10T00:13:25.340Z,100900.28
2017-05-10T00:15:53.018Z,100900.16
2017-05-10T00:18:20.526Z,100896.81
2017-05-10T00:20:48.057Z,100900.50
2017-05-10T00:23:15.608Z,100904.19
2017-05-10T00:25:43.124Z,100895.72
2017-05-10T00:28:11.152Z,100892.20
2017-05-10T00:30:38.661Z,100882.69
2017-05-10T00:33:06.166Z,100885.19
2017-05-10T00:35:33.707Z,100885.58
2017-05-10T00:38:01.224Z,100882.33
2017-05-10T00:40:28.789Z,100878.39
2017-05-10T00:42:56.307Z,100879.44
2017-05-10T00:45:23.849Z,100866.68
2017-05-10T00:47:51.389Z,100872.47
2017-05-10T00:50:18.906Z,100872.94
2017-05-10T00:52:46.464Z,100871.02
2017-05-10T00:55:14.005Z,100866.12
2017-05-10T00:57:41.535Z,100863.77
2017-05-10T01:00:09.051Z,100853.58
2017-05-10T01:02:36.608Z,100858.23
2017-05-10T01:05:04.141Z,100850.35
2017-05-10T01:07:32.096Z,100848.05
2017-05-10T01:09:59.688Z,100843.37
2017-05-10T01:12:27.241Z,100842.94
2017-05-10T01:14:54.870Z,100837.21
2017-05-10T01:17:22.451Z,100838.16
2017-05-10T01:19:50.016Z,100834.25
2017-05-10T01:22:17.528Z,100828.76
2017-05-10T01:24:45.055Z,100826.58
2017-05-10T01:27:12.592Z,100829.70
2017-05-10T01:29:40.103Z,100821.86
2017-05-10T01:32:07.671Z,100820.73
2017-05-10T01:34:35.176Z,100822.17
2017-05-10T01:37:02.683Z,100812.53
2017-05-10T01:39:30.253Z,100807.86
2017-05-10T01:41:57.768Z,100810.22
2017-05-10T01:44:25.371Z,100802.44
2017-05-10T01:46:52.912Z,100801.47
2017-05-10T01:49:20.414Z,100802.30
2017-05-10T01:51:47.967Z,100803.75
2017-05-10T01:54:15.479Z,100799.22
2017-05-10T01:56:43.023Z,100800.18
2017-05-10T01:59:10.539Z,100785.10
2017-05-10T02:01:38.172Z,100787.11
2017-05-10T02:04:05.683Z,100784.34
2017-05-10T02:06:33.196Z,100773.81
2017-05-10T02:09:00.755Z,100780.28
2017-05-10T02:11:28.265Z,100777.33
2017-05-10T02:13:55.809Z,100780.58
2017-05-10T02:16:23.363Z,100779.42
2017-05-10T02:18:51.195Z,100773.52
2017-05-10T02:21:18.708Z,100769.23
2017-05-10T02:23:46.256Z,100763.94
2017-05-10T02:26:13.853Z,100764.62
2017-05-10T02:28:41.724Z,100762.16
2017-05-10T02:31:09.232Z,100762.94
2017-05-10T02:33:36.747Z,100754.53
2017-05-10T02:36:04.360Z,100757.42
2017-05-10T02:38:31.940Z,100759.06
2017-05-10T02:40:59.495Z,100755.25
2017-05-10T02:43:27.169Z,100753.13
2017-05-10T02:45:55.055Z,100747.74
2017-05-10T02:48:22.570Z,100747.52
2017-05-10T02:50:50.087Z,100749.13
2017-05-10T02:53:17.642Z,100742.48
2017-05-10T02:55:45.164Z,100744.91
2017-05-10T02:58:12.715Z,100735.96
2017-05-10T03:00:40.259Z,100737.97
2017-05-10T03:03:07.821Z,100729.55
2017-05-10T03:05:35.353Z,100731.17
2017-05-10T03:08:02.876Z,100733.17
2017-05-10T03:10:30.472Z,100727.18
2017-05-10T03:12:57.996Z,100726.02
2017-05-10T03:15:25.536Z,100722.59
2017-05-10T03:17:53.061Z,100718.28
2017-05-10T03:20:20.612Z,100717.58
2017-05-10T03:22:48.130Z,100717.22
2017-05-10T03:25:15.853Z,100714.27
2017-05-10T03:27:43.415Z,100706.62
2017-05-10T03:30:11.232Z,100710.73
2017-05-10T03:32:38.760Z,100705.20
2017-05-10T03:35:06.293Z,100705.55
2017-05-10T03:37:33.848Z,100704.94
2017-05-10T03:40:01.368Z,100700.65
2017-05-10T03:42:29.319Z,100698.91
2017-05-10T03:44:56.836Z,100697.45
2017-05-10T03:47:24.349Z,100703.19
2017-05-10T03:49:51.911Z,100700.61
2017-05-10T03:52:19.433Z,100699.03
2017-05-10T03:54:47.243Z,100688.98
2017-05-10T03:57:14.839Z,100689.75
2017-05-10T03:59:42.355Z,100689.34
2017-05-10T04:02:10.003Z,100695.92
2017-05-10T04:04:37.579Z,100691.89
2017-05-10T04:07:05.311Z,100698.83
2017-05-10T04:09:32.853Z,100698.89
2017-05-10T04:12:00.410Z,100694.36
2017-05-10T04:14:27.924Z,100702.19
2017-05-10T04:16:55.434Z,100696.33
2017-05-10T04:19:22.979Z,100694.05
2017-05-10T04:21:50.588Z,100696.44
2017-05-10T04:24:18.148Z,100699.20
2017-05-10T04:26:45.722Z,100699.73
2017-05-10T04:29:13.297Z,100701.72
2017-05-10T04:31:40.807Z,100704.91
2017-05-10T04:34:08.319Z,100702.58
2017-05-10T04:36:35.865Z,100705.16
2017-05-10T04:39:03.395Z,100701.55
2017-05-10T04:41:30.948Z,100708.48
2017-05-10T04:43:58.459Z,100707.70
2017-05-10T04:46:25.980Z,100706.30
2017-05-10T04:48:53.541Z,100705.27
2017-05-10T04:51:21.067Z,100711.67
2017-05-10T04:53:48.725Z,100712.06
2017-05-10T04:56:16.227Z,100707.34
2017-05-10T04:58:43.754Z,100707.58
2017-05-10T05:01:11.317Z,100703.69
2017-05-10T05:03:38.859Z,100703.86
2017-05-10T05:06:06.424Z,100705.81
2017-05-10T05:08:33.927Z,100698.00
2017-05-10T05:11:01.474Z,100702.64
2017-05-10T05:13:29.011Z,100704.99
2017-05-10T05:15:56.696Z,100704.44
2017-05-10T05:18:24.222Z,100701.83
2017-05-10T05:20:51.744Z,100703.54
2017-05-10T05:23:19.284Z,100700.50
2017-05-10T05:25:46.804Z,100698.82
2017-05-10T05:28:14.372Z,100699.39
2017-05-10T05:30:41.883Z,100702.02
2017-05-10T05:33:09.602Z,100701.02
2017-05-10T05:35:37.197Z,100699.36
2017-05-10T05:38:04.698Z,100699.75
2017-05-10T05:40:32.237Z,100698.20
2017-05-10T05:42:59.747Z,100697.79
2017-05-10T05:45:27.423Z,100695.16
2017-05-10T05:47:54.936Z,100696.80
2017-05-10T05:50:22.504Z,100692.91
2017-05-10T05:52:50.064Z,100693.23
2017-05-10T05:55:17.636Z,100685.62
2017-05-10T05:57:45.289Z,100687.61
2017-05-10T06:00:12.802Z,100680.89
2017-05-10T06:02:40.333Z,100673.06
2017-05-10T06:05:07.879Z,100686.56
2017-05-10T06:07:35.409Z,100677.27
2017-05-10T06:10:02.968Z,100677.56
2017-05-10T06:12:30.497Z,100675.80
2017-05-10T06:14:58.085Z,100671.09
2017-05-10T06:17:25.612Z,100677.63
2017-05-10T06:19:53.279Z,100674.58
2017-05-10T06:22:20.799Z,100668.58
2017-05-10T06:24:48.311Z,100671.11
2017-05-10T06:27:15.856Z,100671.64
2017-05-10T06:29:43.391Z,100671.63
2017-05-10T06:32:10.960Z,100664.27
2017-05-10T06:34:38.477Z,100672.44
2017-05-10T06:37:06.067Z,100670.14
2017-05-10T06:39:33.608Z,100669.30
2017-05-10T06:42:01.179Z,100664.53
2017-05-10T06:44:28.703Z,100667.83
2017-05-10T06:46:56.370Z,100663.64
2017-05-10T06:49:23.892Z,100663.56
2017-05-10T06:51:51.445Z,100671.55
2017-05-10T06:54:19.189Z,100664.20
2017-05-10T06:56:46.729Z,100663.22
2017-05-10T06:59:14.336Z,100660.30
2017-05-10T07:01:41.861Z,100661.08
2017-05-10T07:04:09.534Z,100663.94
2017-05-10T07:06:37.163Z,100657.17
2017-05-10T07:09:04.683Z,100652.38
2017-05-10T07:11:32.258Z,100647.69
2017-05-10T07:13:59.824Z,100644.50
2017-05-10T07:16:27.395Z,100636.22
2017-05-10T07:18:54.988Z,100638.34
2017-05-10T07:21:22.651Z,100640.94
2017-05-10T07:23:50.216Z,100633.06
2017-05-10T07:26:17.893Z,100633.45
2017-05-10T07:28:45.412Z,100628.64
2017-05-10T07:31:12.943Z,100623.83
2017-05-10T07:33:40.509Z,100625.66
2017-05-10T07:36:08.053Z,100624.94
2017-05-10T07:38:35.629Z,100622.22
2017-05-10T07:41:03.159Z,100624.92
2017-05-10T07:43:30.835Z,100616.27
2017-05-10T07:45:58.451Z,100624.11
2017-05-10T07:48:26.002Z,100617.05
2017-05-10T07:50:53.726Z,100622.05
2017-05-10T07:53:21.263Z,100622.23
2017-05-10T07:55:48.903Z,100618.23
2017-05-10T07:58:16.439Z,100617.17
2017-05-10T08:00:44.352Z,100618.84
2017-05-10T08:03:11.898Z,100622.65
2017-05-10T08:05:39.531Z,100616.52
2017-05-10T08:08:07.092Z,100613.33
2017-05-10T08:10:34.631Z,100615.91
2017-05-10T08:13:02.201Z,100607.84
2017-05-10T08:15:29.727Z,100607.97
2017-05-10T08:17:57.404Z,100605.20
2017-05-10T08:20:24.934Z,100602.52
2017-05-10T08:22:52.459Z,100602.53
2017-05-10T08:25:20.160Z,100600.45
2017-05-10T08:27:47.678Z,100591.06
2017-05-10T08:30:15.248Z,100590.81
2017-05-10T08:32:42.775Z,100584.34
2017-05-10T08:35:10.496Z,100582.08
2017-05-10T08:37:38.044Z,100585.17
2017-05-10T08:40:05.591Z,100578.20
2017-05-10T08:42:33.143Z,100580.75
2017-05-10T08:45:00.688Z,100576.29
2017-05-10T08:47:28.331Z,100572.78
2017-05-10T08:49:55.853Z,100575.45
2017-05-10T08:52:23.764Z,100567.63
2017-05-10T08:54:51.283Z,100567.50
2017-05-10T08:57:18.902Z,100570.88
2017-05-10T08:59:46.465Z,100573.69
2017-05-10T09:02:13.984Z,100570.17
2017-05-10T09:04:41.536Z,100573.23
2017-05-10T09:07:09.064Z,100564.60
2017-05-10T09:09:36.985Z,100570.07
2017-05-10T09:12:04.512Z,100559.69
2017-05-10T09:14:32.272Z,100562.23
2017-05-10T09:16:59.840Z,100554.37
2017-05-10T09:19:27.356Z,100556.30
2017-05-10T09:21:54.915Z,100552.14
2017-05-10T09:24:22.464Z,100542.86
2017-05-10T09:26:50.037Z,100540.19
2017-05-10T09:29:17.603Z,100538.89
2017-05-10T09:31:45.175Z,100535.84
2017-05-10T09:34:12.739Z,100532.26
2017-05-10T09:36:40.512Z,100541.27
2017-05-10T09:39:08.063Z,100527.48
2017-05-10T09:41:35.586Z,100530.77
2017-05-10T09:44:03.177Z,100529.63
2017-05-10T09:46:30.730Z,100528.48
2017-05-10T09:48:58.313Z,100523.27
2017-05-10T09:51:25.861Z,100526.65
2017-05-10T09:53:53.433Z,100526.70
2017-05-10T09:56:20.962Z,100519.93
2017-05-10T09:58:48.630Z,100529.48
2017-05-10T10:01:16.151Z,100522.73
2017-05-10T10:03:43.734Z,100519.83
2017-05-10T10:06:11.314Z,100516.83
2017-05-10T10:08:39.286Z,100512.92
2017-05-10T10:11:06.843Z,100520.38
2017-05-10T10:13:34.391Z,100512.80
2017-05-10T10:16:02.071Z,100509.66
2017-05-10T10:18:29.629Z,100500.87
2017-05-10T10:20:57.149Z,100503.28
2017-05-10T10:23:24.756Z,100499.05
2017-05-10T10:25:52.280Z,100489.23
2017-05-10T10:28:19.843Z,100486.35
2017-05-10T10:30:47.403Z,100484.14
2017-05-10T10:33:15.086Z,100479.38
2017-05-10T10:35:42.608Z,100483.52
2017-05-10T10:38:10.140Z,100483.36
2017-05-10T10:40:37.727Z,100479.92
2017-05-10T10:43:05.246Z,100477.31
2017-05-10T10:45:32.829Z,100468.05
2017-05-10T10:48:00.378Z,100465.77
2017-05-10T10:50:27.961Z,100470.23
2017-05-10T10:52:55.512Z,100460.66
2017-05-10T10:55:23.444Z,100462.19
2017-05-10T10:57:50.963Z,100456.40
2017-05-10T11:00:18.500Z,100455.70
2017-05-10T11:02:46.055Z,100450.98
2017-05-10T11:05:13.575Z,100455.44
2017-05-10T11:07:41.148Z,100449.25
2017-05-10T11:10:08.707Z,100442.43
2017-05-10T11:12:36.263Z,100448.22
2017-05-10T11:15:03.802Z,100441.11
2017-05-10T11:17:31.560Z,100438.94
2017-05-10T11:19:59.136Z,100443.58
2017-05-10T11:22:26.681Z,100441.54
2017-05-10T11:24:54.291Z,100433.25
2017-05-10T11:27:21.830Z,100435.34
2017-05-10T11:29:49.578Z,100440.16
2017-05-10T11:32:17.100Z,100435.31
2017-05-10T11:34:44.627Z,100435.36
2017-05-10T11:37:12.196Z,100428.88
2017-05-10T11:39:39.724Z,100425.36
2017-05-10T11:42:07.292Z,100419.05
2017-05-10T11:44:34.827Z,100413.80
2017-05-10T11:47:02.498Z,100412.03
2017-05-10T11:49:30.032Z,100406.92
2017-05-10T11:51:57.562Z,100406.05
2017-05-10T11:54:25.131Z,100408.11
2017-05-10T11:56:52.660Z,100403.55
2017-05-10T11:59:20.235Z,100398.45
2017-05-10T12:01:47.765Z,100402.44
2017-05-10T12:04:15.327Z,100400.14
2017-05-10T12:06:42.887Z,100394.22
2017-05-10T12:09:10.440Z,100389.45
2017-05-10T12:11:38.003Z,100389.20
2017-05-10T12:14:05.532Z,100386.80
2017-05-10T12:16:33.093Z,100382.46
2017-05-10T12:19:00.615Z,100384.47
2017-05-10T12:21:28.164Z,100375.38
2017-05-10T12:23:55.740Z,100372.11
2017-05-10T12:26:23.317Z,100371.17
2017-05-10T12:28:50.864Z,100368.64
2017-05-10T12:31:18.401Z,100360.26
2017-05-10T12:33:46.224Z,100353.31
2017-05-10T12:36:13.783Z,100350.69
2017-05-10T12:38:41.268Z,100352.94
2017-05-10T12:41:08.819Z,100342.56
2017-05-10T12:43:36.352Z,100344.27
2017-05-10T12:46:03.911Z,100346.59
2017-05-10T12:48:31.444Z,100339.80
2017-05-10T12:50:59.004Z,100338.23
2017-05-10T12:53:26.568Z,100336.44
2017-05-10T12:55:54.113Z,100334.59
2017-05-10T12:58:21.627Z,100323.30
2017-05-10T13:00:49.816Z,100322.55
2017-05-10T13:03:17.358Z,100310.28
2017-05-10T13:05:45.197Z,100322.27
2017-05-10T13:08:12.743Z,100314.16
2017-05-10T13:10:40.259Z,100319.09
2017-05-10T13:13:07.839Z,100305.16
2017-05-10T13:15:35.362Z,100304.56
2017-05-10T13:18:02.935Z,100297.41
2017-05-10T13:20:30.495Z,100300.13
2017-05-10T13:22:58.043Z,100289.17
2017-05-10T13:25:25.591Z,100292.72
2017-05-10T13:27:53.500Z,100277.97
2017-05-10T13:30:21.022Z,100279.79
2017-05-10T13:32:48.564Z,100268.77
2017-05-10T13:35:16.248Z,100265.89
2017-05-10T13:37:43.880Z,100258.31
2017-05-10T13:40:11.784Z,100256.66
2017-05-10T13:42:39.310Z,100248.64
2017-05-10T13:45:06.848Z,100256.42
2017-05-10T13:47:34.747Z,100246.73
2017-05-10T13:50:02.264Z,100246.44
2017-05-10T13:52:29.807Z,100250.29
2017-05-10T13:54:57.356Z,100237.08
2017-05-10T13:57:24.915Z,100241.95
2017-05-10T13:59:52.493Z,100242.45
2017-05-10T14:02:20.036Z,100243.94
2017-05-10T14:04:47.553Z,100247.77
2017-05-10T14:07:15.468Z,100240.94
2017-05-10T14:09:42.990Z,100236.52
2017-05-10T14:12:10.538Z,100235.16
2017-05-10T14:14:38.104Z,100221.92
2017-05-10T14:17:05.682Z,100222.25
2017-05-10T14:19:33.668Z,100219.72
2017-05-10T14:22:01.317Z,100206.33
2017-05-10T14:24:28.877Z,100208.33
2017-05-10T14:26:56.559Z,100215.54
2017-05-10T14:29:24.209Z,100211.11
2017-05-10T14:31:51.797Z,100194.42
2017-05-10T14:34:19.377Z,100190.98
2017-05-10T14:36:47.305Z,100185.12
2017-05-10T14:39:14.855Z,100180.03
2017-05-10T14:41:42.389Z,100182.09
2017-05-10T14:44:09.972Z,100179.22
2017-05-10T14:46:37.531Z,100175.98
2017-05-10T14:49:05.141Z,100179.10
2017-05-10T14:51:32.688Z,100177.48
2017-05-10T14:54:00.336Z,100173.38
2017-05-10T14:56:27.969Z,100165.48
2017-05-10T14:58:55.595Z,100156.45
2017-05-10T15:01:23.136Z,100152.48
2017-05-10T15:03:50.719Z,100152.03
2017-05-10T15:06:18.239Z,100155.72
2017-05-10T15:08:45.817Z,100156.88
2017-05-10T15:11:13.387Z,100148.84
2017-05-10T15:13:40.977Z,100141.06
2017-05-10T15:16:08.538Z,100139.41
2017-05-10T15:18:36.067Z,100132.80
2017-05-10T15:21:03.733Z,100133.64
2017-05-10T15:23:31.268Z,100126.16
2017-05-10T15:25:59.106Z,100133.37
2017-05-10T15:28:26.694Z,100120.73
2017-05-10T15:30:54.256Z,100127.08
2017-05-10T15:33:21.850Z,100122.81
2017-05-10T15:35:49.410Z,100117.86
2017-05-10T15:38:16.946Z,100118.55
2017-05-10T15:40:44.565Z,100112.00
2017-05-10T15:43:12.461Z,100114.17
2017-05-10T15:45:40.026Z,100110.39
2017-05-10T15:48:08.524Z,100101.93
2017-05-10T15:50:36.075Z,100095.83
2017-05-10T15:53:03.648Z,100102.75
2017-05-10T15:55:31.215Z,100099.30
2017-05-10T15:57:58.760Z,100087.65
2017-05-10T16:00:26.347Z,100092.89
2017-05-10T16:02:53.900Z,100091.63
2017-05-10T16:05:21.464Z,100085.23
2017-05-10T16:07:49.040Z,100086.97
2017-05-10T16:10:16.599Z,100088.66
2017-05-10T16:12:44.347Z,100080.26
2017-05-10T16:15:11.874Z,100081.04
2017-05-10T16:17:39.407Z,100078.88
2017-05-10T16:20:06.976Z,100077.80
2017-05-10T16:22:34.499Z,100075.65
2017-05-10T16:25:02.508Z,100067.92
2017-05-10T16:27:30.044Z,100068.25
2017-05-10T16:29:57.609Z,100068.50
2017-05-10T16:32:25.198Z,100069.44
2017-05-10T16:34:53.208Z,100062.91
2017-05-10T16:37:20.771Z,100057.17
2017-05-10T16:39:48.348Z,100049.44
2017-05-10T16:42:15.976Z,100048.23
2017-05-10T16:44:43.524Z,100043.23
2017-05-10T16:47:11.096Z,100046.30
2017-05-10T16:49:38.648Z,100039.95
2017-05-10T16:52:06.584Z,100044.29
2017-05-10T16:54:34.110Z,100039.11
2017-05-10T16:57:01.635Z,100037.00
2017-05-10T16:59:29.204Z,100027.19
2017-05-10T17:01:56.747Z,100019.05
2017-05-10T17:04:24.337Z,100020.16
2017-05-10T17:06:51.885Z,100016.77
2017-05-10T17:09:19.468Z,100013.16
2017-05-10T17:11:47.036Z,100013.20
2017-05-10T17:14:14.608Z,100010.75
2017-05-10T17:16:42.183Z,100003.09
2017-05-10T17:19:09.788Z,100000.33
2017-05-10T17:21:37.331Z,99995.33
2017-05-10T17:24:04.878Z,99989.52
2017-05-10T17:26:32.856Z,99992.49
2017-05-10T17:29:00.386Z,99994.37
2017-05-10T17:31:27.931Z,99993.97
2017-05-10T17:33:55.527Z,99998.39
2017-05-10T17:36:23.058Z,99992.53
2017-05-10T17:38:50.620Z,99995.98
2017-05-10T17:41:18.164Z,99991.18
2017-05-10T17:43:46.065Z,99981.48
2017-05-10T17:46:13.600Z,99985.12
2017-05-10T17:48:41.134Z,99986.05
2017-05-10T17:51:08.719Z,99983.66
2017-05-10T17:53:36.603Z,99981.22
2017-05-10T17:56:04.139Z,99977.02
2017-05-10T17:58:31.690Z,99977.82
2017-05-10T18:00:59.275Z,99979.58
2017-05-10T18:03:26.787Z,99980.65
2017-05-10T18:05:54.332Z,99977.09
2017-05-10T18:08:21.880Z,99975.45
2017-05-10T18:10:49.615Z,99982.14
2017-05-10T18:13:17.134Z,99978.20
2017-05-10T18:15:44.702Z,99972.08
2017-05-10T18:18:13.848Z,99981.93
2017-05-10T18:20:41.460Z,99976.81
2017-05-10T18:23:09.098Z,99974.23
2017-05-10T18:25:36.641Z,99976.57
2017-05-10T18:28:04.286Z,99977.73
2017-05-10T18:30:31.816Z,99974.93
2017-05-10T18:32:59.536Z,99976.32
2017-05-10T18:35:27.048Z,99976.23
2017-05-10T18:37:54.595Z,99978.94
2017-05-10T18:40:22.178Z,99977.03
2017-05-10T18:42:49.727Z,99980.49
2017-05-10T18:45:17.655Z,99973.69
2017-05-10T18:47:45.171Z,99971.11
2017-05-10T18:50:12.692Z,99973.74
2017-05-10T18:52:40.265Z,99968.39
2017-05-10T18:55:07.797Z,99975.92
2017-05-10T18:57:35.370Z,99972.70
2017-05-10T19:00:02.923Z,99976.19
2017-05-10T19:02:30.598Z,99971.30
2017-05-10T19:04:58.142Z,99968.80
2017-05-10T19:07:25.673Z,99965.79
2017-05-10T19:09:53.269Z,99965.86
2017-05-10T19:12:20.930Z,99970.37
2017-05-10T19:14:48.475Z,99962.53
2017-05-10T19:17:16.203Z,99968.81
2017-05-10T19:19:43.791Z,99972.80
2017-05-10T19:22:11.363Z,99969.31
2017-05-10T19:24:39.145Z,99967.55
2017-05-10T19:27:06.732Z,99972.86
2017-05-10T19:29:34.261Z,99972.28
2017-05-10T19:32:01.889Z,99976.91
2017-05-10T19:34:29.433Z,99973.13
2017-05-10T19:36:57.176Z,99971.25
2017-05-10T19:39:24.734Z,99973.25
2017-05-10T19:41:52.274Z,99971.48
2017-05-10T19:44:19.844Z,99963.17
2017-05-10T19:46:47.385Z,99965.59
2017-05-10T19:49:15.156Z,99969.03
2017-05-10T19:51:42.690Z,99959.27
2017-05-10T19:54:10.206Z,99962.99
2017-05-10T19:56:37.791Z,99958.64
2017-05-10T19:59:05.330Z,99952.59
2017-05-10T20:01:32.934Z,99955.79
2017-05-10T20:04:00.452Z,99956.66
2017-05-10T20:06:28.018Z,99952.99
2017-05-10T20:08:55.604Z,99950.11
2017-05-10T20:11:23.491Z,99947.25
2017-05-10T20:13:51.033Z,99941.75
2017-05-10T20:16:18.616Z,99945.02
2017-05-10T20:18:46.439Z,99942.71
2017-05-10T20:21:13.981Z,99944.20
2017-05-10T20:23:41.522Z,99946.16
2017-05-10T20:26:09.097Z,99947.00
2017-05-10T20:28:36.648Z,99947.19
2017-05-10T20:31:04.221Z,99942.01
2017-05-10T20:33:31.768Z,99945.27
2017-05-10T20:35:59.363Z,99940.57
2017-05-10T20:38:26.928Z,99937.70
2017-05-10T20:40:54.509Z,99936.97
2017-05-10T20:43:22.055Z,99943.30
2017-05-10T20:45:49.599Z,99940.01
2017-05-10T20:48:17.247Z,99943.80
2017-05-10T20:50:44.810Z,99940.08
2017-05-10T20:53:12.394Z,99945.98
2017-05-10T20:55:40.018Z,99942.97
2017-05-10T20:58:07.592Z,99948.97
2017-05-10T21:00:35.188Z,99941.53
2017-05-10T21:03:02.740Z,99942.00
2017-05-10T21:05:30.688Z,99942.78
2017-05-10T21:07:58.230Z,99939.95
2017-05-10T21:10:25.777Z,99931.87
2017-05-10T21:12:53.353Z,99937.10
2017-05-10T21:15:20.873Z,99929.81
2017-05-10T21:17:48.473Z,99922.04
2017-05-10T21:20:15.993Z,99922.82
2017-05-10T21:22:43.672Z,99926.79
2017-05-10T21:25:11.189Z,99919.48
2017-05-10T21:27:38.718Z,99915.30
2017-05-10T21:30:06.288Z,99917.52
2017-05-10T21:32:33.836Z,99921.14
2017-05-10T21:35:01.420Z,99918.33
2017-05-10T21:37:28.947Z,99922.57
2017-05-10T21:39:56.623Z,99919.80
2017-05-10T21:42:24.144Z,99920.38
2017-05-10T21:44:51.669Z,99915.80
2017-05-10T21:47:19.231Z,99917.16
2017-05-10T21:49:46.851Z,99912.20
2017-05-10T21:52:14.397Z,99915.00
2017-05-10T21:54:41.973Z,99920.22
2017-05-10T21:57:09.699Z,99909.30
2017-05-10T21:59:37.218Z,99916.34
2017-05-10T22:02:04.768Z,99919.30
2017-05-10T22:04:32.326Z,99921.36
2017-05-10T22:06:59.859Z,99921.78
2017-05-10T22:09:27.470Z,99915.41
2017-05-10T22:11:54.987Z,99916.49
2017-05-10T22:14:22.542Z,99918.16
2017-05-10T22:16:50.202Z,99912.88
2017-05-10T22:19:17.719Z,99922.67
2017-05-10T22:21:45.375Z,99914.16
2017-05-10T22:24:12.952Z,99919.23
2017-05-10T22:26:40.585Z,99919.32
2017-05-10T22:29:08.141Z,99914.77
2017-05-10T22:31:35.655Z,99915.35
2017-05-10T22:34:03.209Z,99910.33
2017-05-10T22:36:30.825Z,99909.69
2017-05-10T22:38:58.402Z,99917.75
2017-05-10T22:41:25.918Z,99910.50
2017-05-10T22:43:53.488Z,99903.77
2017-05-10T22:46:21.007Z,99902.89
2017-05-10T22:48:48.775Z,99900.32
2017-05-10T22:51:16.348Z,99894.17
2017-05-10T22:53:43.976Z,99888.34
2017-05-10T22:56:11.662Z,99889.33
2017-05-10T22:58:39.201Z,99883.38
2017-05-10T23:01:06.764Z,99880.19
2017-05-10T23:03:34.649Z,99880.15
2017-05-10T23:06:08.827Z,99875.93
2017-05-10T23:08:36.517Z,99883.28
2017-05-10T23:11:04.040Z,99876.45
2017-05-10T23:13:31.564Z,99869.41
2017-05-10T23:15:59.163Z,99872.05
2017-05-10T23:18:26.747Z,99865.51
2017-05-10T23:20:54.315Z,99863.52
2017-05-10T23:23:21.901Z,99864.76
2017-05-10T23:25:49.530Z,99866.92
2017-05-10T23:28:17.100Z,99862.52
2017-05-10T23:30:44.625Z,99853.95
2017-05-10T23:33:12.192Z,99849.63
2017-05-10T23:35:39.721Z,99850.83
2017-05-10T23:38:07.276Z,99849.36
2017-05-10T23:40:34.910Z,99851.03
2017-05-10T23:43:02.491Z,99848.60
2017-05-10T23:45:30.003Z,99846.95
2017-05-10T23:47:57.522Z,99848.03
2017-05-10T23:50:25.086Z,99843.83
2017-05-10T23:52:52.615Z,99839.80
2017-05-10T23:55:20.211Z,99838.80
2017-05-10T23:57:47.744Z,99843.66
